Time;durP1;ratioP1;P1;durP2;ratioP2;P2;SDS_P1;SDS_P2;PMS_P1;PMS_P2;Temp;Humidity;BMP_temperature;BMP_pressure;BME280_temperature;BME280_humidity;BME280_pressure;Samples;Min_cycle;Max_cycle;Signal;HPM_P1;HPM_P2
2021/07/14 00:01:32;;;;;;;;;;;21.70;76.90;;;;;;4957736;28;1890;-70
2021/07/14 00:03:57;;;;;;;;;;;21.70;77.60;;;;;;4974474;28;1509;-71
2021/07/14 00:06:23;;;;;;;;;;;21.70;77.00;;;;;;4974505;28;1406;-71
2021/07/14 00:08:48;;;;;;;;;;;21.70;76.90;;;;;;4974614;28;1348;-71
2021/07/14 00:11:14;;;;;;;;;;;21.70;76.90;;;;;;4974330;28;1339;-71
2021/07/14 00:14:14;;;;;;;;;;;21.70;76.90;;;;;;4957425;28;1393;-71
2021/07/14 00:22:12;;;;;;;;;;;21.70;76.90;;;;;;4974186;28;1969;-71
2021/07/14 00:24:38;;;;;;;;;;;21.70;76.90;;;;;;4974262;28;1503;-71
2021/07/14 00:27:06;;;;;;;;;;;21.70;76.90;;;;;;4957037;28;1390;-71
2021/07/14 00:29:37;;;;;;;;;;;21.70;76.90;;;;;;4957350;28;1779;-71
2021/07/14 00:32:05;;;;;;;;;;;21.70;76.90;;;;;;4957053;28;1380;-71
2021/07/14 00:34:31;;;;;;;;;;;21.70;76.90;;;;;;4973636;28;1663;-71
2021/07/14 00:36:56;;;;;;;;;;;21.70;76.90;;;;;;4957183;28;1704;-71
2021/07/14 00:39:22;;;;;;;;;;;21.70;76.90;;;;;;4974728;28;1388;-71
2021/07/14 00:41:47;;;;;;;;;;;21.70;76.90;;;;;;4973750;28;1963;-71
2021/07/14 00:44:13;;;;;;;;;;;21.70;76.90;;;;;;4973632;28;1697;-71
2021/07/14 00:46:39;;;;;;;;;;;21.70;76.90;;;;;;4974323;28;1411;-71
2021/07/14 00:49:06;;;;;;;;;;;21.70;76.90;;;;;;4974178;28;1676;-72
2021/07/14 00:51:31;;;;;;;;;;;21.70;76.90;;;;;;4955933;28;1420;-72
2021/07/14 00:53:58;;;;;;;;;;;21.70;76.90;;;;;;4956479;28;1375;-73
2021/07/14 00:56:24;;;;;;;;;;;21.70;76.90;;;;;;4956816;28;1259;-71
2021/07/14 00:58:50;;;;;;;;;;;21.70;76.90;;;;;;4974593;28;1681;-71
2021/07/14 01:01:15;;;;;;;;;;;21.70;76.90;;;;;;4956893;28;1902;-70
2021/07/14 01:03:45;;;;;;;;;;;21.70;76.90;;;;;;4940452;28;1643;-73
2021/07/14 01:06:12;;;;;;;;;;;21.70;76.90;;;;;;4955885;28;1658;-73
2021/07/14 01:08:41;;;;;;;;;;;21.70;77.00;;;;;;4940868;28;1677;-73
2021/07/14 01:11:06;;;;;;;;;;;21.70;76.90;;;;;;4973343;28;1341;-73
2021/07/14 01:13:41;;;;;;;;;;;21.70;76.90;;;;;;4973640;28;1391;-73
2021/07/14 01:16:07;;;;;;;;;;;21.70;76.90;;;;;;4940174;28;1632;-74
2021/07/14 01:18:35;;;;;;;;;;;21.70;76.90;;;;;;4956923;28;1188;-74
2021/07/14 01:21:01;;;;;;;;;;;21.70;76.90;;;;;;4940476;28;1956;-74
2021/07/14 01:23:41;;;;;;;;;;;21.70;76.90;;;;;;4956700;28;1389;-74
2021/07/14 01:26:07;;;;;;;;;;;21.70;76.90;;;;;;4955693;28;1177;-74
2021/07/14 01:28:34;;;;;;;;;;;21.70;76.90;;;;;;4973402;28;1374;-74
2021/07/14 01:30:59;;;;;;;;;;;21.70;76.90;;;;;;4956249;28;1696;-71
2021/07/14 01:33:27;;;;;;;;;;;21.70;77.00;;;;;;4956380;28;1373;-71
2021/07/14 01:35:52;;;;;;;;;;;21.70;76.90;;;;;;4956447;28;1679;-71
2021/07/14 01:38:18;;;;;;;;;;;21.70;76.90;;;;;;4973556;28;1018;-71
2021/07/14 01:40:44;;;;;;;;;;;21.70;76.90;;;;;;4959984;28;1976;-72
2021/07/14 01:43:09;;;;;;;;;;;21.70;76.90;;;;;;4959813;28;1369;-71
2021/07/14 01:45:36;;;;;;;;;;;21.70;76.90;;;;;;4959477;28;1393;-71
2021/07/14 01:48:02;;;;;;;;;;;21.70;76.90;;;;;;4960291;28;1400;-71
2021/07/14 01:50:28;;;;;;;;;;;21.70;76.90;;;;;;4959793;28;1541;-72
2021/07/14 01:52:53;;;;;;;;;;;21.70;77.00;;;;;;4977085;28;1490;-71
2021/07/14 01:55:19;;;;;;;;;;;21.70;77.00;;;;;;4959062;28;1375;-71
2021/07/14 01:57:44;;;;;;;;;;;21.70;76.90;;;;;;4959695;28;1388;-71
2021/07/14 02:00:10;;;;;;;;;;;21.70;76.90;;;;;;4959547;28;1899;-71
2021/07/14 02:02:38;;;;;;;;;;;21.70;77.00;;;;;;4960114;28;1689;-71
2021/07/14 02:05:04;;;;;;;;;;;21.70;77.00;;;;;;4959327;28;1421;-71
2021/07/14 02:07:29;;;;;;;;;;;21.70;76.90;;;;;;4977064;28;1399;-72
2021/07/14 02:09:55;;;;;;;;;;;21.70;76.90;;;;;;4959209;28;1673;-71
2021/07/14 02:12:22;;;;;;;;;;;21.70;77.00;;;;;;4959743;28;1394;-72
2021/07/14 02:14:48;;;;;;;;;;;21.70;76.90;;;;;;4958593;28;1723;-71
2021/07/14 02:17:17;;;;;;;;;;;21.70;77.00;;;;;;4943737;28;1730;-71
2021/07/14 02:19:44;;;;;;;;;;;21.70;76.90;;;;;;4959510;28;1714;-74
2021/07/14 02:22:10;;;;;;;;;;;21.70;76.90;;;;;;4959147;28;1907;-72
2021/07/14 02:24:36;;;;;;;;;;;21.70;77.00;;;;;;4957655;28;1422;-72
2021/07/14 02:27:05;;;;;;;;;;;21.70;77.00;;;;;;4976395;28;1631;-72
2021/07/14 02:29:38;;;;;;;;;;;21.70;76.90;;;;;;4959512;28;1459;-72
2021/07/14 02:32:04;;;;;;;;;;;21.70;77.00;;;;;;4958787;28;1359;-72
2021/07/14 02:34:29;;;;;;;;;;;21.70;76.90;;;;;;4976054;28;1391;-71
2021/07/14 02:36:55;;;;;;;;;;;21.70;76.90;;;;;;4976892;28;1077;-72
2021/07/14 02:39:20;;;;;;;;;;;21.70;76.90;;;;;;4959086;28;1362;-71
2021/07/14 02:41:53;;;;;;;;;;;21.70;76.90;;;;;;4976046;28;1930;-71
2021/07/14 02:44:20;;;;;;;;;;;21.70;76.90;;;;;;4975604;28;1573;-71
2021/07/14 02:46:45;;;;;;;;;;;21.70;77.00;;;;;;4958828;28;1696;-71
2021/07/14 02:49:11;;;;;;;;;;;21.80;77.00;;;;;;4959227;28;1664;-72
2021/07/14 02:51:37;;;;;;;;;;;21.70;76.90;;;;;;4957123;28;1651;-72
2021/07/14 02:54:04;;;;;;;;;;;21.70;77.00;;;;;;4963622;28;1102;-72
2021/07/14 02:56:29;;;;;;;;;;;21.70;76.90;;;;;;4958422;28;1065;-72
2021/07/14 02:58:55;;;;;;;;;;;21.70;77.00;;;;;;4958866;28;1062;-72
2021/07/14 03:01:21;;;;;;;;;;;21.70;76.90;;;;;;4958228;28;1982;-73
2021/07/14 03:03:50;;;;;;;;;;;21.70;77.00;;;;;;4958951;28;1109;-72
2021/07/14 03:06:15;;;;;;;;;;;21.70;76.90;;;;;;4958007;28;1125;-72
2021/07/14 03:08:43;;;;;;;;;;;21.70;76.90;;;;;;4958239;28;1172;-72
2021/07/14 03:11:08;;;;;;;;;;;21.70;77.00;;;;;;4958461;28;1270;-72
2021/07/14 03:13:36;;;;;;;;;;;21.70;77.00;;;;;;4958523;28;1101;-71
2021/07/14 03:16:01;;;;;;;;;;;21.70;77.00;;;;;;4957864;28;1101;-72
2021/07/14 03:18:27;;;;;;;;;;;21.70;77.00;;;;;;4975602;28;1145;-72
2021/07/14 03:20:53;;;;;;;;;;;21.70;77.00;;;;;;4975242;28;1955;-72
2021/07/14 03:23:19;;;;;;;;;;;21.70;77.00;;;;;;4975569;28;1093;-72
2021/07/14 03:25:44;;;;;;;;;;;21.70;76.90;;;;;;4957770;28;1121;-72
2021/07/14 03:28:10;;;;;;;;;;;21.70;77.00;;;;;;4958228;28;1002;-72
2021/07/14 03:30:37;;;;;;;;;;;21.70;77.00;;;;;;4974647;28;1281;-72
2021/07/14 03:33:02;;;;;;;;;;;21.70;77.00;;;;;;4958095;28;1149;-72
2021/07/14 03:35:28;;;;;;;;;;;21.70;77.00;;;;;;4957627;28;1102;-72
2021/07/14 03:37:56;;;;;;;;;;;21.70;77.00;;;;;;4957719;28;1081;-72
2021/07/14 03:40:21;;;;;;;;;;;21.70;77.00;;;;;;4957816;28;1906;-72
2021/07/14 03:42:47;;;;;;;;;;;21.70;77.00;;;;;;4957800;28;1148;-72
2021/07/14 03:45:12;;;;;;;;;;;21.80;77.00;;;;;;4956976;28;1258;-72
2021/07/14 03:47:39;;;;;;;;;;;21.70;77.00;;;;;;4942135;28;1221;-72
2021/07/14 03:50:04;;;;;;;;;;;21.70;76.90;;;;;;4958152;28;1358;-72
2021/07/14 03:52:30;;;;;;;;;;;21.70;77.00;;;;;;4957041;28;1108;-72
2021/07/14 03:54:55;;;;;;;;;;;21.70;77.00;;;;;;4957010;28;1212;-72
2021/07/14 03:57:21;;;;;;;;;;;21.70;77.00;;;;;;4957866;28;1078;-72
2021/07/14 03:59:46;;;;;;;;;;;21.70;77.00;;;;;;4975007;28;1164;-72
2021/07/14 04:02:12;;;;;;;;;;;21.70;77.00;;;;;;4957000;28;1907;-72
2021/07/14 04:04:37;;;;;;;;;;;21.70;77.00;;;;;;4957350;28;1286;-72
2021/07/14 04:07:07;;;;;;;;;;;21.70;77.00;;;;;;4974210;28;1133;-72
2021/07/14 04:09:32;;;;;;;;;;;21.70;77.00;;;;;;4957638;28;1077;-72
2021/07/14 04:11:58;;;;;;;;;;;21.70;77.00;;;;;;4957616;28;1228;-72
2021/07/14 04:14:24;;;;;;;;;;;21.70;77.00;;;;;;4973906;28;1070;-72
2021/07/14 04:16:49;;;;;;;;;;;21.70;77.00;;;;;;4941287;28;1110;-72
2021/07/14 04:19:15;;;;;;;;;;;21.70;76.90;;;;;;4974397;28;1034;-72
2021/07/14 04:21:40;;;;;;;;;;;21.70;77.00;;;;;;4957115;28;1899;-72
2021/07/14 04:24:06;;;;;;;;;;;21.70;77.00;;;;;;4956891;28;1309;-72
2021/07/14 04:26:31;;;;;;;;;;;21.70;77.00;;;;;;4956638;28;1089;-72
2021/07/14 04:28:57;;;;;;;;;;;21.70;77.00;;;;;;4974466;28;1036;-72
2021/07/14 04:31:22;;;;;;;;;;;21.70;77.00;;;;;;4974606;28;1212;-72
2021/07/14 04:33:48;;;;;;;;;;;21.70;77.00;;;;;;4974366;28;1089;-72
2021/07/14 04:36:13;;;;;;;;;;;21.70;77.00;;;;;;4955912;28;1089;-72
2021/07/14 04:38:38;;;;;;;;;;;21.80;77.00;;;;;;4974395;28;1073;-72
2021/07/14 04:41:04;;;;;;;;;;;21.70;77.00;;;;;;4956830;28;1976;-72
2021/07/14 04:43:30;;;;;;;;;;;21.70;77.00;;;;;;4956528;28;1130;-72
2021/07/14 04:45:55;;;;;;;;;;;21.70;77.00;;;;;;4956455;28;1074;-72
2021/07/14 04:48:22;;;;;;;;;;;21.70;77.00;;;;;;4974000;28;1078;-72
2021/07/14 04:50:48;;;;;;;;;;;21.70;77.00;;;;;;4972708;28;1279;-72
2021/07/14 04:53:13;;;;;;;;;;;21.70;77.00;;;;;;4973212;28;1092;-72
2021/07/14 04:55:39;;;;;;;;;;;21.70;77.00;;;;;;4956743;28;1149;-72
2021/07/14 04:58:04;;;;;;;;;;;21.70;77.00;;;;;;4974157;28;1058;-72
2021/07/14 05:00:30;;;;;;;;;;;21.70;77.00;;;;;;4974067;28;1884;-72
2021/07/14 05:02:56;;;;;;;;;;;21.70;77.00;;;;;;4974109;28;1125;-72
2021/07/14 05:05:21;;;;;;;;;;;21.70;77.00;;;;;;4973308;28;1065;-72
2021/07/14 05:07:47;;;;;;;;;;;21.70;77.00;;;;;;4973526;28;1105;-72
2021/07/14 05:10:13;;;;;;;;;;;21.70;77.00;;;;;;4973670;28;1274;-72
2021/07/14 05:12:40;;;;;;;;;;;21.70;77.00;;;;;;4973756;28;1066;-72
2021/07/14 05:15:05;;;;;;;;;;;21.70;77.10;;;;;;4972709;28;1124;-73
2021/07/14 05:17:31;;;;;;;;;;;21.70;77.10;;;;;;4956476;28;1121;-73
2021/07/14 05:19:56;;;;;;;;;;;21.70;77.00;;;;;;4973179;28;1193;-72
2021/07/14 05:22:22;;;;;;;;;;;21.70;77.00;;;;;;4973378;28;1973;-73
2021/07/14 05:24:47;;;;;;;;;;;21.70;77.00;;;;;;4955759;28;1105;-73
2021/07/14 05:27:13;;;;;;;;;;;21.80;77.00;;;;;;4973417;28;1090;-73
2021/07/14 05:29:38;;;;;;;;;;;21.80;77.00;;;;;;4956113;28;1094;-72
2021/07/14 05:32:04;;;;;;;;;;;21.70;77.00;;;;;;4948665;28;1688;-69
2021/07/14 05:34:30;;;;;;;;;;;21.80;77.00;;;;;;4955848;28;1886;-71
2021/07/14 05:36:55;;;;;;;;;;;21.80;77.00;;;;;;4971926;28;1179;-71
2021/07/14 05:39:21;;;;;;;;;;;21.70;76.90;;;;;;4972252;28;1049;-71
2021/07/14 05:41:46;;;;;;;;;;;21.80;77.00;;;;;;4972436;28;1975;-71
2021/07/14 05:44:12;;;;;;;;;;;21.80;77.00;;;;;;4971657;28;1294;-71
2021/07/14 05:46:37;;;;;;;;;;;21.80;77.00;;;;;;4971999;28;1057;-71
2021/07/14 05:49:03;;;;;;;;;;;21.70;77.00;;;;;;4972849;28;1164;-71
2021/07/14 05:51:29;;;;;;;;;;;21.80;77.00;;;;;;4954599;28;1299;-70
2021/07/14 05:53:55;;;;;;;;;;;21.80;77.00;;;;;;4973460;28;1054;-72
2021/07/14 05:56:20;;;;;;;;;;;21.70;76.90;;;;;;4973120;28;1117;-71
2021/07/14 05:58:45;;;;;;;;;;;21.80;76.90;;;;;;4973475;28;1152;-71
2021/07/14 06:01:11;;;;;;;;;;;21.70;76.90;;;;;;4955578;28;1898;-73
2021/07/14 06:03:36;;;;;;;;;;;21.70;76.90;;;;;;4955365;28;1129;-71
2021/07/14 06:06:02;;;;;;;;;;;21.70;76.90;;;;;;4972582;28;1094;-71
2021/07/14 06:08:27;;;;;;;;;;;21.70;76.90;;;;;;4956063;28;1161;-71
2021/07/14 06:10:52;;;;;;;;;;;21.80;76.90;;;;;;4955981;28;1370;-72
2021/07/14 06:13:18;;;;;;;;;;;21.70;76.80;;;;;;4973106;28;1161;-71
2021/07/14 06:15:44;;;;;;;;;;;21.70;76.80;;;;;;4955492;28;1098;-72
2021/07/14 06:18:09;;;;;;;;;;;21.70;76.80;;;;;;4972854;28;1203;-72
2021/07/14 06:20:35;;;;;;;;;;;21.80;76.80;;;;;;4955875;28;1960;-72
2021/07/14 06:23:00;;;;;;;;;;;21.80;76.80;;;;;;4973472;28;1148;-72
2021/07/14 06:25:25;;;;;;;;;;;21.70;76.80;;;;;;4973808;28;1058;-74
2021/07/14 06:27:51;;;;;;;;;;;21.80;76.80;;;;;;4976225;28;1102;-73
2021/07/14 06:30:16;;;;;;;;;;;21.80;76.80;;;;;;4976593;28;1263;-73
2021/07/14 06:32:42;;;;;;;;;;;21.70;76.80;;;;;;4976550;28;1125;-72
2021/07/14 06:35:08;;;;;;;;;;;21.70;76.80;;;;;;4975886;28;998;-73
2021/07/14 06:37:34;;;;;;;;;;;21.80;76.80;;;;;;4958982;28;1211;-73
2021/07/14 06:39:59;;;;;;;;;;;21.80;76.80;;;;;;4958810;28;1421;-73
2021/07/14 06:42:25;;;;;;;;;;;21.70;76.80;;;;;;4959053;28;1977;-73
2021/07/14 06:44:50;;;;;;;;;;;21.80;76.80;;;;;;4975319;28;1267;-73
2021/07/14 06:47:16;;;;;;;;;;;21.80;76.80;;;;;;4958773;28;1050;-73
2021/07/14 06:49:42;;;;;;;;;;;21.80;76.90;;;;;;4976675;28;1148;-73
2021/07/14 06:52:08;;;;;;;;;;;21.70;76.80;;;;;;4958088;28;1279;-72
2021/07/14 06:54:34;;;;;;;;;;;21.70;76.80;;;;;;4975577;28;1049;-72
2021/07/14 06:57:00;;;;;;;;;;;21.70;76.80;;;;;;4975758;28;1098;-72
2021/07/14 06:59:25;;;;;;;;;;;21.70;76.80;;;;;;4976315;28;1085;-72
2021/07/14 07:01:50;;;;;;;;;;;21.70;76.90;;;;;;4974960;28;1906;-72
2021/07/14 07:04:16;;;;;;;;;;;21.80;76.90;;;;;;4975655;28;1065;-72
2021/07/14 07:06:41;;;;;;;;;;;21.80;76.90;;;;;;4958927;28;1173;-72
2021/07/14 07:09:07;;;;;;;;;;;21.80;76.90;;;;;;4975799;28;1054;-72
2021/07/14 07:11:34;;;;;;;;;;;21.80;76.90;;;;;;4975631;28;1352;-72
2021/07/14 07:14:00;;;;;;;;;;;21.70;76.90;;;;;;4957968;28;1062;-72
2021/07/14 07:16:26;;;;;;;;;;;21.80;76.90;;;;;;4975187;28;1148;-72
2021/07/14 07:18:51;;;;;;;;;;;21.80;76.90;;;;;;4975760;28;1266;-72
2021/07/14 07:21:17;;;;;;;;;;;21.80;76.90;;;;;;4975502;28;1902;-72
2021/07/14 07:23:45;;;;;;;;;;;21.80;76.90;;;;;;4958559;28;1066;-72
2021/07/14 07:26:11;;;;;;;;;;;21.80;76.90;;;;;;4958076;28;1114;-72
2021/07/14 07:28:41;;;;;;;;;;;21.80;76.90;;;;;;4958644;28;1070;-73
2021/07/14 07:31:07;;;;;;;;;;;21.70;76.90;;;;;;4975238;28;1272;-73
2021/07/14 07:33:32;;;;;;;;;;;21.80;76.90;;;;;;4975743;28;1074;-72
2021/07/14 07:35:58;;;;;;;;;;;21.70;76.90;;;;;;4973810;28;1117;-72
2021/07/14 07:38:23;;;;;;;;;;;21.80;76.90;;;;;;4975107;28;1140;-72
2021/07/14 07:40:51;;;;;;;;;;;21.80;76.90;;;;;;4975108;28;1977;-72
2021/07/14 07:43:17;;;;;;;;;;;21.80;76.90;;;;;;4975340;28;1144;-72
2021/07/14 07:45:42;;;;;;;;;;;21.80;76.90;;;;;;4973855;28;1341;-72
2021/07/14 07:48:07;;;;;;;;;;;21.70;76.90;;;;;;4974975;28;1132;-72
2021/07/14 07:50:33;;;;;;;;;;;21.80;77.70;;;;;;4974562;28;1276;-72
2021/07/14 07:52:58;;;;;;;;;;;21.80;76.90;;;;;;4974858;28;1187;-72
2021/07/14 07:55:24;;;;;;;;;;;21.80;76.90;;;;;;4974516;28;1211;-71
2021/07/14 07:57:49;;;;;;;;;;;21.80;77.00;;;;;;4975013;28;1140;-72
2021/07/14 08:00:16;;;;;;;;;;;21.80;77.00;;;;;;4974462;28;1919;-72
2021/07/14 08:02:41;;;;;;;;;;;21.80;77.00;;;;;;4974611;28;1077;-72
2021/07/14 08:05:08;;;;;;;;;;;21.80;77.00;;;;;;4974328;28;1199;-72
2021/07/14 08:07:33;;;;;;;;;;;21.80;77.00;;;;;;4957065;28;1066;-72
2021/07/14 08:09:59;;;;;;;;;;;21.80;77.00;;;;;;4974722;28;1349;-72
2021/07/14 08:12:24;;;;;;;;;;;21.80;77.00;;;;;;4957294;28;1152;-72
2021/07/14 08:14:50;;;;;;;;;;;21.80;77.00;;;;;;4974277;28;1145;-72
2021/07/14 08:17:15;;;;;;;;;;;21.80;77.00;;;;;;4974706;28;1169;-72
2021/07/14 08:19:41;;;;;;;;;;;21.80;77.00;;;;;;4974309;28;1168;-72
2021/07/14 08:22:06;;;;;;;;;;;21.80;77.00;;;;;;4956770;28;1918;-72
2021/07/14 08:24:31;;;;;;;;;;;21.80;77.00;;;;;;4974194;28;1192;-72
2021/07/14 08:26:57;;;;;;;;;;;21.80;77.00;;;;;;4974295;28;1086;-72
2021/07/14 08:29:22;;;;;;;;;;;21.80;77.00;;;;;;4974107;28;1125;-73
2021/07/14 08:31:51;;;;;;;;;;;21.80;77.00;;;;;;4974153;28;1219;-73
2021/07/14 08:34:17;;;;;;;;;;;21.80;77.00;;;;;;4973842;28;1093;-73
2021/07/14 08:36:43;;;;;;;;;;;21.80;77.00;;;;;;4974252;28;1085;-73
2021/07/14 08:39:08;;;;;;;;;;;21.80;77.10;;;;;;4974322;28;1216;-73
2021/07/14 08:41:34;;;;;;;;;;;21.80;77.00;;;;;;4973842;28;1903;-73
2021/07/14 08:43:59;;;;;;;;;;;21.80;77.00;;;;;;4973275;28;1129;-72
2021/07/14 08:46:24;;;;;;;;;;;21.80;77.00;;;;;;4948975;29;1074;-72
2021/07/14 08:48:50;;;;;;;;;;;21.80;77.00;;;;;;4952313;28;1895;-73
2021/07/14 08:51:16;;;;;;;;;;;21.80;77.00;;;;;;4965167;28;1295;-73
2021/07/14 08:53:41;;;;;;;;;;;21.80;77.00;;;;;;4956845;28;1227;-72
2021/07/14 08:56:06;;;;;;;;;;;21.70;77.00;;;;;;4967401;28;2076;-73
2021/07/14 08:58:32;;;;;;;;;;;21.80;77.00;;;;;;4973143;28;1463;-73
2021/07/14 09:00:58;;;;;;;;;;;21.80;77.00;;;;;;4972827;28;1955;-73
2021/07/14 09:03:24;;;;;;;;;;;21.80;77.00;;;;;;4965779;28;1593;-73
2021/07/14 09:05:49;;;;;;;;;;;21.70;76.90;;;;;;4966681;28;1458;-73
2021/07/14 09:08:15;;;;;;;;;;;21.80;77.00;;;;;;4973147;28;1277;-73
2021/07/14 09:10:41;;;;;;;;;;;21.80;77.00;;;;;;4973126;28;1574;-73
2021/07/14 09:13:07;;;;;;;;;;;21.80;77.00;;;;;;4968654;28;1348;-73
2021/07/14 09:15:40;;;;;;;;;;;21.80;77.00;;;;;;4964232;28;1865;-73
2021/07/14 09:18:05;;;;;;;;;;;21.80;77.00;;;;;;4968907;28;1642;-73
2021/07/14 09:20:31;;;;;;;;;;;21.80;77.00;;;;;;4966273;28;2018;-73
2021/07/14 09:23:01;;;;;;;;;;;21.80;77.00;;;;;;4971658;28;1803;-72
2021/07/14 09:25:27;;;;;;;;;;;21.80;77.00;;;;;;4972094;28;1531;-73
2021/07/14 09:28:00;;;;;;;;;;;21.80;76.90;;;;;;4972561;28;1631;-72
2021/07/14 09:30:27;;;;;;;;;;;21.80;77.00;;;;;;4955536;28;1594;-72
2021/07/14 09:32:55;;;;;;;;;;;21.80;77.00;;;;;;4955884;28;1577;-72
2021/07/14 09:35:27;;;;;;;;;;;21.80;76.90;;;;;;4972154;28;1574;-72
2021/07/14 09:37:53;;;;;;;;;;;21.80;77.00;;;;;;4956175;28;2185;-72
2021/07/14 09:40:19;;;;;;;;;;;21.80;77.00;;;;;;4958291;28;1894;-71
2021/07/14 09:42:51;;;;;;;;;;;21.80;77.00;;;;;;4954457;28;1902;-73
2021/07/14 09:45:26;;;;;;;;;;;21.80;77.00;;;;;;4970185;28;1176;-72
2021/07/14 09:47:56;;;;;;;;;;;21.80;77.00;;;;;;4953248;28;2010;-72
2021/07/14 09:50:35;;;;;;;;;;;21.80;77.00;;;;;;4972134;28;1965;-72
2021/07/14 09:53:04;;;;;;;;;;;21.80;77.10;;;;;;4962120;28;1097;-72
2021/07/14 09:55:29;;;;;;;;;;;21.80;77.00;;;;;;4972641;28;1136;-72
2021/07/14 09:58:11;;;;;;;;;;;21.80;77.00;;;;;;4966567;28;1975;-72
2021/07/14 10:00:41;;;;;;;;;;;21.80;77.00;;;;;;4972094;28;1971;-72
2021/07/14 10:03:06;;;;;;;;;;;21.80;77.00;;;;;;4959413;28;1086;-72
2021/07/14 10:05:31;;;;;;;;;;;21.80;77.00;;;;;;4976599;28;1144;-72
2021/07/14 10:08:13;;;;;;;;;;;21.80;77.00;;;;;;4959568;28;1054;-72
2021/07/14 10:10:38;;;;;;;;;;;21.80;77.00;;;;;;4961720;28;1713;-71
2021/07/14 10:13:07;;;;;;;;;;;21.80;77.00;;;;;;4976462;28;1179;-71
2021/07/14 10:15:33;;;;;;;;;;;21.80;77.00;;;;;;4958938;28;975;-72
2021/07/14 10:17:58;;;;;;;;;;;21.80;77.00;;;;;;4976353;28;1141;-72
2021/07/14 10:20:25;;;;;;;;;;;21.80;77.00;;;;;;4959542;28;1966;-72
2021/07/14 10:22:52;;;;;;;;;;;21.80;77.00;;;;;;4959378;28;1189;-72
2021/07/14 10:25:17;;;;;;;;;;;21.80;77.00;;;;;;4958364;28;1106;-72
2021/07/14 10:27:44;;;;;;;;;;;21.80;77.00;;;;;;4959328;28;1431;-72
2021/07/14 10:30:09;;;;;;;;;;;21.80;77.00;;;;;;4959072;28;1232;-72
2021/07/14 10:32:35;;;;;;;;;;;21.80;77.00;;;;;;4991183;22;2010;-66
2021/07/14 10:35:00;;;;;;;;;;;21.80;77.00;;;;;;4968005;28;912;-66
2021/07/14 10:37:26;;;;;;;;;;;21.80;77.00;;;;;;4975351;28;1066;-65
2021/07/14 10:39:51;;;;;;;;;;;21.80;77.10;;;;;;4976474;28;1104;-66
2021/07/14 10:42:16;;;;;;;;;;;21.80;77.10;;;;;;4974730;28;1918;-65
2021/07/14 10:44:42;;;;;;;;;;;21.80;77.10;;;;;;4974488;28;1294;-66
2021/07/14 10:47:08;;;;;;;;;;;21.80;77.10;;;;;;4991230;28;1113;-67
2021/07/14 10:49:33;;;;;;;;;;;21.80;77.00;;;;;;4991403;28;1073;-66
2021/07/14 10:51:58;;;;;;;;;;;21.80;77.00;;;;;;4988153;28;1894;-66
2021/07/14 10:54:24;;;;;;;;;;;21.80;77.00;;;;;;4975407;28;1132;-66
2021/07/14 10:56:49;;;;;;;;;;;21.80;77.00;;;;;;4991038;28;1203;-65
2021/07/14 10:59:15;;;;;;;;;;;21.80;77.00;;;;;;4990555;28;1112;-65
2021/07/14 11:01:40;;;;;;;;;;;21.80;77.00;;;;;;4990848;28;1984;-66
2021/07/14 11:04:24;;;;;;;;;;;21.80;77.00;;;;;;4975871;28;1117;-66
2021/07/14 11:06:53;;;;;;;;;;;21.80;76.90;;;;;;4975844;28;1124;-66
2021/07/14 11:09:31;;;;;;;;;;;21.80;77.00;;;;;;4976472;28;1066;-65
2021/07/14 11:11:57;;;;;;;;;;;21.80;77.00;;;;;;4974143;28;1306;-66
2021/07/14 11:14:22;;;;;;;;;;;21.80;77.00;;;;;;4974951;28;1131;-67
2021/07/14 11:16:48;;;;;;;;;;;21.80;77.00;;;;;;4974484;28;1468;-66
2021/07/14 11:19:14;;;;;;;;;;;21.80;77.00;;;;;;4974067;28;1411;-66
2021/07/14 11:21:56;;;;;;;;;;;21.80;77.00;;;;;;4973976;28;1938;-65
2021/07/14 11:24:46;;;;;;;;;;;21.80;77.00;;;;;;4973567;28;1529;-66
2021/07/14 11:27:18;;;;;;;;;;;21.80;77.00;;;;;;4975425;28;1041;-66
2021/07/14 11:29:44;;;;;;;;;;;21.80;77.00;;;;;;4974184;28;1541;-66
2021/07/14 11:32:09;;;;;;;;;;;21.80;77.00;;;;;;4974186;28;1304;-66
2021/07/14 11:34:37;;;;;;;;;;;21.80;77.00;;;;;;4975342;28;1065;-66
2021/07/14 11:37:21;;;;;;;;;;;21.80;77.00;;;;;;4974958;28;998;-67
2021/07/14 11:39:46;;;;;;;;;;;21.80;77.00;;;;;;4974244;28;1124;-66
2021/07/14 11:42:18;;;;;;;;;;;21.80;77.00;;;;;;4975155;28;1975;-65
2021/07/14 11:44:50;;;;;;;;;;;21.80;77.00;;;;;;4972046;28;1895;-66
2021/07/14 11:47:42;;;;;;;;;;;21.80;77.00;;;;;;4975271;28;1329;-66
2021/07/14 11:50:07;;;;;;;;;;;21.80;77.00;;;;;;4973272;28;1392;-65
2021/07/14 11:52:42;;;;;;;;;;;21.80;77.10;;;;;;4975092;28;1187;-65
2021/07/14 11:55:28;;;;;;;;;;;21.80;77.10;;;;;;4973967;28;1140;-66
2021/07/14 11:57:53;;;;;;;;;;;21.80;77.10;;;;;;4974761;28;1222;-66
2021/07/14 12:00:32;;;;;;;;;;;21.80;77.10;;;;;;4975277;28;1137;-66
2021/07/14 12:02:58;;;;;;;;;;;21.80;77.10;;;;;;4968389;28;1907;-66
2021/07/14 12:05:28;;;;;;;;;;;21.80;77.10;;;;;;4981307;28;2024;-66
2021/07/14 12:07:56;;;;;;;;;;;21.80;77.10;;;;;;4988709;28;1174;-66
2021/07/14 12:10:23;;;;;;;;;;;21.80;77.00;;;;;;4969005;28;1910;-66
2021/07/14 12:12:49;;;;;;;;;;;21.80;77.10;;;;;;4973131;28;1240;-67
2021/07/14 12:15:14;;;;;;;;;;;21.80;77.10;;;;;;4972019;28;1145;-66
2021/07/14 12:17:40;;;;;;;;;;;21.80;77.10;;;;;;4972996;28;1148;-66
2021/07/14 12:20:06;;;;;;;;;;;21.80;77.00;;;;;;4973756;28;1124;-67
2021/07/14 12:22:31;;;;;;;;;;;21.80;77.00;;;;;;4973523;28;1975;-67
2021/07/14 12:25:09;;;;;;;;;;;21.80;77.10;;;;;;4972673;28;1153;-65
2021/07/14 12:27:35;;;;;;;;;;;21.80;77.10;;;;;;4973305;28;1053;-66
2021/07/14 12:30:11;;;;;;;;;;;21.80;77.10;;;;;;4973484;28;1066;-66
2021/07/14 12:32:43;;;;;;;;;;;21.80;77.10;;;;;;4972268;28;1402;-66
2021/07/14 12:35:10;;;;;;;;;;;21.80;77.10;;;;;;4972864;28;1101;-66
2021/07/14 12:37:40;;;;;;;;;;;21.80;77.10;;;;;;4973847;28;1105;-66
2021/07/14 12:40:06;;;;;;;;;;;21.80;77.10;;;;;;4974559;28;1144;-66
2021/07/14 12:42:31;;;;;;;;;;;21.80;77.10;;;;;;4974468;28;1985;-66
2021/07/14 12:44:56;;;;;;;;;;;21.80;77.10;;;;;;4973051;28;1171;-66
2021/07/14 12:47:22;;;;;;;;;;;21.80;77.10;;;;;;4974133;28;1191;-67
2021/07/14 12:49:52;;;;;;;;;;;21.80;77.10;;;;;;4972924;28;1156;-66
2021/07/14 12:52:18;;;;;;;;;;;21.80;77.10;;;;;;4973786;28;1200;-66
2021/07/14 12:54:45;;;;;;;;;;;21.80;77.10;;;;;;4972237;28;1196;-66
2021/07/14 12:57:19;;;;;;;;;;;21.80;77.00;;;;;;4972966;28;1141;-67
2021/07/14 12:59:51;;;;;;;;;;;21.80;77.10;;;;;;4973822;28;1109;-66
2021/07/14 13:02:17;;;;;;;;;;;21.80;77.10;;;;;;4973211;28;1898;-66
2021/07/14 13:04:43;;;;;;;;;;;21.80;77.10;;;;;;4972018;28;1148;-66
2021/07/14 13:07:08;;;;;;;;;;;21.80;77.10;;;;;;4972776;28;1113;-66
2021/07/14 13:09:34;;;;;;;;;;;21.80;77.10;;;;;;4972386;28;1062;-66
2021/07/14 13:11:59;;;;;;;;;;;21.80;77.10;;;;;;4972211;28;1206;-66
2021/07/14 13:14:25;;;;;;;;;;;21.80;77.10;;;;;;4971918;28;1055;-65
2021/07/14 13:16:50;;;;;;;;;;;21.80;77.10;;;;;;4972485;28;1090;-67
2021/07/14 13:19:16;;;;;;;;;;;21.80;77.10;;;;;;4973206;28;1125;-65
2021/07/14 13:21:42;;;;;;;;;;;21.80;77.10;;;;;;4965320;28;1898;-65
2021/07/14 13:24:07;;;;;;;;;;;21.80;77.10;;;;;;4971560;28;1545;-68
2021/07/14 13:26:33;;;;;;;;;;;21.80;77.10;;;;;;4988652;28;1065;-64
2021/07/14 13:28:58;;;;;;;;;;;21.80;77.10;;;;;;4972815;28;1104;-64
2021/07/14 13:31:24;;;;;;;;;;;21.80;77.10;;;;;;4972086;28;1363;-67
2021/07/14 13:33:56;;;;;;;;;;;21.80;77.80;;;;;;4985639;28;1097;-67
2021/07/14 13:36:25;;;;;;;;;;;21.80;77.10;;;;;;4971698;28;1772;-67
2021/07/14 13:38:57;;;;;;;;;;;21.80;77.10;;;;;;4967214;28;1270;-67
2021/07/14 13:41:24;;;;;;;;;;;21.80;77.10;;;;;;4976713;28;2009;-66
2021/07/14 13:43:53;;;;;;;;;;;21.80;77.10;;;;;;4976398;28;1093;-65
2021/07/14 13:46:20;;;;;;;;;;;21.80;77.10;;;;;;4990960;28;1173;-69
2021/07/14 13:48:52;;;;;;;;;;;21.80;77.10;;;;;;4976861;28;1109;-66
2021/07/14 13:51:46;;;;;;;;;;;21.80;77.10;;;;;;4975926;28;1212;-67
2021/07/14 13:54:18;;;;;;;;;;;21.80;77.10;;;;;;4960107;28;1167;-66
2021/07/14 13:56:44;;;;;;;;;;;21.80;77.10;;;;;;4972301;28;1149;-67
2021/07/14 13:59:28;;;;;;;;;;;21.80;77.10;;;;;;4976380;28;1113;-67
2021/07/14 14:01:57;;;;;;;;;;;21.80;77.10;;;;;;4974527;28;1960;-66
2021/07/14 14:04:26;;;;;;;;;;;21.80;77.10;;;;;;4975387;28;1074;-67
2021/07/14 14:06:52;;;;;;;;;;;21.80;77.10;;;;;;4977065;28;1192;-66
2021/07/14 14:09:17;;;;;;;;;;;21.80;77.10;;;;;;4976591;28;1101;-66
2021/07/14 14:11:43;;;;;;;;;;;21.80;77.10;;;;;;4976459;28;1224;-65
2021/07/14 14:14:08;;;;;;;;;;;21.80;77.30;;;;;;4975611;28;1077;-66
2021/07/14 14:16:34;;;;;;;;;;;21.80;77.40;;;;;;4976664;28;1200;-67
2021/07/14 14:18:59;;;;;;;;;;;21.80;77.40;;;;;;4976531;28;1121;-65
2021/07/14 14:21:24;;;;;;;;;;;21.80;77.30;;;;;;4976289;28;1891;-65
2021/07/14 14:23:55;;;;;;;;;;;21.80;77.40;;;;;;4976623;28;1053;-66
2021/07/14 14:26:26;;;;;;;;;;;21.80;77.40;;;;;;4976094;28;1135;-65
2021/07/14 14:28:51;;;;;;;;;;;21.80;77.30;;;;;;4976687;28;1143;-66
2021/07/14 14:31:17;;;;;;;;;;;21.80;77.30;;;;;;4976443;28;1293;-66
2021/07/14 14:33:44;;;;;;;;;;;21.80;77.30;;;;;;4976167;28;1155;-66
2021/07/14 14:36:09;;;;;;;;;;;21.80;77.30;;;;;;4975793;28;1048;-66